createdAt,value
2017-11-07T00:01:06.904Z,3.10
2017-11-07T00:03:35.062Z,3.10
2017-11-07T00:06:03.276Z,3.10
2017-11-07T00:08:31.496Z,3.00
2017-11-07T00:10:59.636Z,3.00
2017-11-07T00:13:27.799Z,3.00
2017-11-07T00:15:55.910Z,3.00
2017-11-07T00:18:24.983Z,3.00
2017-11-07T00:20:53.468Z,3.00
2017-11-07T00:23:21.809Z,3.00
2017-11-07T00:25:49.959Z,3.00
2017-11-07T00:28:18.120Z,2.90
2017-11-07T00:30:47.491Z,2.90
2017-11-07T00:33:15.640Z,2.80
2017-11-07T00:35:43.749Z,2.80
2017-11-07T00:38:12.659Z,2.80
2017-11-07T00:40:40.856Z,2.70
2017-11-07T00:43:08.970Z,2.70
2017-11-07T00:45:37.106Z,2.70
2017-11-07T00:48:05.344Z,2.70
2017-11-07T00:50:33.588Z,2.70
2017-11-07T00:53:02.620Z,2.60
2017-11-07T00:55:30.889Z,2.60
2017-11-07T00:57:59.104Z,2.60
2017-11-07T01:00:28.015Z,2.70
2017-11-07T01:02:56.170Z,2.60
2017-11-07T01:05:24.323Z,2.70
2017-11-07T01:07:52.606Z,2.70
2017-11-07T01:10:20.724Z,2.70
2017-11-07T01:12:48.859Z,2.70
2017-11-07T01:15:16.970Z,2.60
2017-11-07T01:17:45.133Z,2.60
2017-11-07T01:20:14.388Z,2.60
2017-11-07T01:22:42.524Z,2.60
2017-11-07T01:25:11.481Z,2.70
2017-11-07T01:27:39.658Z,2.60
2017-11-07T01:30:08.565Z,2.70
2017-11-07T01:32:36.782Z,2.60
2017-11-07T01:35:04.890Z,2.60
2017-11-07T01:37:33.025Z,2.60
2017-11-07T01:40:01.949Z,2.60
2017-11-07T01:42:30.126Z,2.60
2017-11-07T01:44:58.278Z,2.70
2017-11-07T01:47:26.442Z,2.70
2017-11-07T01:49:54.641Z,2.70
2017-11-07T01:52:22.832Z,2.70
2017-11-07T01:54:51.070Z,2.60
2017-11-07T01:57:19.260Z,2.70
2017-11-07T01:59:47.450Z,2.60
2017-11-07T02:02:15.574Z,2.60
2017-11-07T02:04:43.833Z,2.60
2017-11-07T02:07:12.019Z,2.60
2017-11-07T02:09:40.171Z,2.60
2017-11-07T02:12:08.352Z,2.60
2017-11-07T02:14:36.485Z,2.60
2017-11-07T02:17:05.363Z,2.60
2017-11-07T02:19:34.324Z,2.60
2017-11-07T02:22:02.488Z,2.50
2017-11-07T02:24:30.599Z,2.50
2017-11-07T02:26:58.750Z,2.50
2017-11-07T02:29:26.866Z,2.50
2017-11-07T02:31:58.163Z,2.60
2017-11-07T02:34:26.269Z,2.60
2017-11-07T02:36:54.489Z,2.60
2017-11-07T02:39:22.623Z,2.60
2017-11-07T02:41:50.759Z,2.60
2017-11-07T02:44:19.643Z,2.50
2017-11-07T02:46:47.769Z,2.50
2017-11-07T02:49:16.704Z,2.50
2017-11-07T02:51:44.916Z,2.50
2017-11-07T02:54:13.170Z,2.50
2017-11-07T02:56:42.048Z,2.50
2017-11-07T02:59:10.200Z,2.50
2017-11-07T03:01:39.103Z,2.60
2017-11-07T03:04:07.212Z,2.50
2017-11-07T03:06:36.102Z,2.50
2017-11-07T03:09:04.223Z,2.50
2017-11-07T03:11:32.328Z,2.50
2017-11-07T03:14:00.475Z,2.50
2017-11-07T03:16:28.574Z,2.50
2017-11-07T03:18:57.526Z,2.40
2017-11-07T03:21:26.183Z,2.50
2017-11-07T03:23:55.053Z,2.50
2017-11-07T03:26:23.172Z,2.50
2017-11-07T03:28:51.276Z,2.40
2017-11-07T03:31:19.496Z,2.40
2017-11-07T03:33:47.649Z,2.40
2017-11-07T03:36:15.777Z,2.40
2017-11-07T03:38:43.894Z,2.50
2017-11-07T03:41:12.786Z,2.50
2017-11-07T03:43:40.926Z,2.50
2017-11-07T03:46:09.074Z,2.50
2017-11-07T03:48:37.964Z,2.50
2017-11-07T03:51:06.089Z,2.50
2017-11-07T03:53:34.277Z,2.50
2017-11-07T03:56:02.518Z,2.50
2017-11-07T03:58:31.402Z,2.50
2017-11-07T04:01:00.282Z,2.50
2017-11-07T04:03:28.735Z,2.50
2017-11-07T04:05:59.259Z,2.50
2017-11-07T04:08:27.393Z,2.50
2017-11-07T04:10:59.284Z,2.50
2017-11-07T04:13:27.369Z,2.50
2017-11-07T04:15:55.602Z,2.50
2017-11-07T04:18:23.729Z,2.50
2017-11-07T04:20:52.662Z,2.50
2017-11-07T04:23:20.798Z,2.50
2017-11-07T04:25:48.974Z,2.50
2017-11-07T04:28:17.151Z,2.40
2017-11-07T04:30:45.406Z,2.40
2017-11-07T04:33:13.519Z,2.40
2017-11-07T04:35:41.658Z,2.40
2017-11-07T04:38:09.783Z,2.40
2017-11-07T04:40:37.943Z,2.40
2017-11-07T04:43:06.063Z,2.40
2017-11-07T04:45:35.018Z,2.40
2017-11-07T04:48:03.157Z,2.40
2017-11-07T04:50:31.254Z,2.40
2017-11-07T04:52:59.414Z,2.40
2017-11-07T04:55:27.573Z,2.50
2017-11-07T04:57:55.742Z,2.50
2017-11-07T05:00:23.883Z,2.50
2017-11-07T05:02:52.033Z,2.50
2017-11-07T05:05:20.151Z,2.60
2017-11-07T05:07:49.262Z,2.60
2017-11-07T05:10:17.442Z,2.60
2017-11-07T05:12:45.710Z,2.70
2017-11-07T05:15:13.948Z,2.70
2017-11-07T05:17:42.067Z,2.70
2017-11-07T05:20:10.974Z,2.70
2017-11-07T05:22:39.286Z,2.70
2017-11-07T05:25:07.564Z,2.70
2017-11-07T05:27:35.703Z,2.70
2017-11-07T05:30:03.818Z,2.70
2017-11-07T05:32:33.860Z,2.80
2017-11-07T05:35:02.126Z,2.80
2017-11-07T05:37:31.007Z,2.80
2017-11-07T05:40:00.135Z,2.80
2017-11-07T05:42:28.264Z,2.80
2017-11-07T05:44:56.499Z,2.80
2017-11-07T05:47:24.642Z,2.80
2017-11-07T05:49:52.827Z,2.80
2017-11-07T05:52:22.395Z,2.80
2017-11-07T05:54:50.846Z,2.80
2017-11-07T05:57:20.237Z,2.80
2017-11-07T05:59:48.755Z,2.80
2017-11-07T06:02:16.926Z,2.80
2017-11-07T06:04:45.071Z,2.80
2017-11-07T06:07:13.195Z,2.80
2017-11-07T06:09:42.078Z,2.80
2017-11-07T06:12:10.291Z,2.80
2017-11-07T06:14:38.430Z,2.80
2017-11-07T06:17:06.769Z,2.80
2017-11-07T06:19:35.141Z,2.80
2017-11-07T06:22:03.359Z,2.70
2017-11-07T06:24:32.039Z,2.70
2017-11-07T06:27:03.407Z,2.70
2017-11-07T06:29:31.556Z,2.80
2017-11-07T06:31:59.638Z,2.80
2017-11-07T06:34:27.846Z,2.90
2017-11-07T06:36:56.823Z,2.80
2017-11-07T06:39:25.031Z,2.80
2017-11-07T06:41:56.092Z,2.80
2017-11-07T06:44:26.965Z,2.80
2017-11-07T06:46:56.607Z,2.80
2017-11-07T06:49:24.751Z,2.80
2017-11-07T06:51:52.885Z,2.80
2017-11-07T06:54:22.638Z,2.90
2017-11-07T06:56:51.310Z,3.00
2017-11-07T06:59:19.408Z,2.90
2017-11-07T07:01:50.370Z,3.00
2017-11-07T07:04:18.722Z,3.00
2017-11-07T07:06:59.298Z,3.00
2017-11-07T07:09:27.662Z,3.10
2017-11-07T07:11:55.790Z,3.10
2017-11-07T07:14:25.693Z,3.10
2017-11-07T07:16:53.835Z,3.10
2017-11-07T07:19:24.160Z,3.10
2017-11-07T07:21:53.603Z,3.10
2017-11-07T07:24:22.559Z,3.10
2017-11-07T07:26:50.698Z,3.20
2017-11-07T07:29:19.579Z,3.20
2017-11-07T07:31:47.726Z,3.20
2017-11-07T07:34:16.695Z,3.30
2017-11-07T07:36:44.835Z,3.30
2017-11-07T07:39:14.065Z,3.30
2017-11-07T07:41:42.318Z,3.30
2017-11-07T07:44:11.198Z,3.40
2017-11-07T07:46:43.493Z,3.30
2017-11-07T07:49:12.694Z,3.40
2017-11-07T07:51:40.869Z,3.40
2017-11-07T07:54:09.359Z,3.50
2017-11-07T07:56:37.467Z,3.60
2017-11-07T07:59:05.599Z,3.60
2017-11-07T08:01:33.847Z,3.60
2017-11-07T08:04:02.002Z,3.70
2017-11-07T08:06:30.127Z,3.70
2017-11-07T08:08:58.451Z,3.80
2017-11-07T08:11:26.729Z,3.90
2017-11-07T08:13:54.964Z,3.90
2017-11-07T08:16:24.460Z,3.90
2017-11-07T08:18:52.621Z,4.00
2017-11-07T08:21:20.731Z,4.10
2017-11-07T08:23:48.863Z,4.10
2017-11-07T08:26:17.552Z,4.20
2017-11-07T08:28:46.490Z,4.30
2017-11-07T08:31:15.239Z,4.30
2017-11-07T08:33:43.465Z,4.40
2017-11-07T08:36:12.486Z,4.50
2017-11-07T08:38:41.200Z,4.50
2017-11-07T08:41:09.473Z,4.50
2017-11-07T08:43:39.182Z,4.50
2017-11-07T08:46:08.652Z,4.50
2017-11-07T08:48:37.102Z,4.60
2017-11-07T08:51:05.295Z,4.60
2017-11-07T08:53:33.704Z,4.60
2017-11-07T08:56:01.863Z,4.70
2017-11-07T08:58:30.756Z,4.70
2017-11-07T09:00:59.625Z,4.80
2017-11-07T09:03:27.898Z,4.80
2017-11-07T09:05:56.858Z,5.00
2017-11-07T09:08:25.831Z,5.10
2017-11-07T09:10:54.012Z,5.00
2017-11-07T09:15:56.488Z,4.80
2017-11-07T09:18:24.557Z,4.90
2017-11-07T09:20:52.796Z,5.00
2017-11-07T09:23:24.678Z,5.10
2017-11-07T09:28:31.395Z,5.10
2017-11-07T09:31:00.332Z,5.10
2017-11-07T09:33:28.464Z,5.10
2017-11-07T09:35:56.652Z,5.20
2017-11-07T09:38:25.088Z,5.30
2017-11-07T09:40:53.958Z,5.50
2017-11-07T09:43:22.438Z,5.50
2017-11-07T09:45:50.608Z,5.50
2017-11-07T09:48:18.866Z,5.60
2017-11-07T09:50:47.782Z,5.60
2017-11-07T09:53:15.886Z,5.60
2017-11-07T09:55:43.986Z,5.70
2017-11-07T09:58:12.099Z,5.70
2017-11-07T10:00:40.482Z,5.80
2017-11-07T10:03:08.602Z,5.80
2017-11-07T10:05:37.303Z,5.80
2017-11-07T10:08:05.422Z,5.90
2017-11-07T10:10:33.538Z,6.00
2017-11-07T10:13:01.927Z,6.00
2017-11-07T10:15:30.159Z,6.00
2017-11-07T10:17:59.042Z,6.00
2017-11-07T10:20:28.066Z,6.10
2017-11-07T10:22:56.199Z,6.00
2017-11-07T10:25:24.521Z,6.10
2017-11-07T10:27:53.914Z,6.20
2017-11-07T10:30:22.198Z,6.30
2017-11-07T10:32:50.571Z,6.30
2017-11-07T10:35:19.070Z,6.40
2017-11-07T10:37:47.238Z,6.40
2017-11-07T10:40:15.582Z,6.40
2017-11-07T10:42:47.850Z,6.50
2017-11-07T10:45:18.093Z,6.60
2017-11-07T10:47:46.378Z,6.60
2017-11-07T10:50:15.153Z,6.70
2017-11-07T10:52:43.290Z,6.70
2017-11-07T10:55:12.594Z,6.70
2017-11-07T10:57:40.824Z,6.70
2017-11-07T11:00:09.192Z,6.70
2017-11-07T11:02:37.326Z,6.60
2017-11-07T11:05:06.290Z,6.50
2017-11-07T11:07:34.479Z,6.50
2017-11-07T11:10:02.678Z,6.50
2017-11-07T11:12:30.942Z,6.50
2017-11-07T11:14:59.167Z,6.50
2017-11-07T11:17:27.285Z,6.60
2017-11-07T11:19:55.392Z,6.60
2017-11-07T11:22:24.609Z,6.70
2017-11-07T11:24:52.969Z,6.80
2017-11-07T11:27:21.095Z,6.80
2017-11-07T11:29:50.536Z,6.80
2017-11-07T11:32:20.284Z,6.80
2017-11-07T11:34:48.523Z,6.90
2017-11-07T11:37:17.071Z,6.90
2017-11-07T11:39:46.388Z,6.90
2017-11-07T11:42:14.719Z,6.90
2017-11-07T11:44:42.914Z,6.90
2017-11-07T11:47:11.177Z,7.00
2017-11-07T11:49:39.379Z,7.00
2017-11-07T11:52:07.507Z,7.00
2017-11-07T11:54:35.649Z,7.00
2017-11-07T11:57:03.807Z,7.00
2017-11-07T11:59:32.706Z,7.00
2017-11-07T12:02:00.874Z,7.00
2017-11-07T12:04:28.991Z,7.00
2017-11-07T12:06:57.094Z,7.00
2017-11-07T12:09:26.107Z,7.00
2017-11-07T12:11:54.235Z,7.00
2017-11-07T12:14:23.144Z,7.00
2017-11-07T12:16:52.260Z,7.00
2017-11-07T12:19:20.451Z,7.00
2017-11-07T12:21:51.749Z,6.90
2017-11-07T12:24:22.971Z,6.90
2017-11-07T12:26:52.304Z,6.90
2017-11-07T12:29:20.471Z,6.90
2017-11-07T12:31:48.583Z,6.90
2017-11-07T12:34:16.801Z,7.00
2017-11-07T12:36:45.570Z,7.10
2017-11-07T12:39:13.791Z,7.10
2017-11-07T12:41:43.375Z,7.10
2017-11-07T12:44:12.272Z,7.00
2017-11-07T12:46:40.502Z,7.00
2017-11-07T12:49:08.630Z,7.00
2017-11-07T12:51:43.382Z,7.10
2017-11-07T12:54:11.559Z,7.10
2017-11-07T12:56:39.680Z,7.10
2017-11-07T12:59:10.611Z,7.10
2017-11-07T13:01:38.811Z,7.10
2017-11-07T13:06:48.530Z,7.00
2017-11-07T13:09:16.718Z,7.10
2017-11-07T13:11:45.408Z,7.10
2017-11-07T13:14:13.538Z,7.10
2017-11-07T13:16:42.779Z,7.10
2017-11-07T13:19:10.939Z,7.00
2017-11-07T13:21:39.509Z,7.00
2017-11-07T13:24:07.666Z,7.00
2017-11-07T13:26:36.209Z,7.00
2017-11-07T13:29:04.440Z,7.00
2017-11-07T13:31:32.537Z,7.00
2017-11-07T13:34:02.084Z,7.00
2017-11-07T13:36:30.293Z,7.00
2017-11-07T13:39:01.812Z,6.90
2017-11-07T13:41:29.915Z,6.90
2017-11-07T13:43:58.048Z,6.90
2017-11-07T13:46:26.167Z,6.80
2017-11-07T13:48:54.254Z,6.80
2017-11-07T13:51:22.355Z,6.80
2017-11-07T13:53:50.599Z,6.80
2017-11-07T13:56:21.340Z,6.80
2017-11-07T13:58:49.494Z,6.70
2017-11-07T14:01:17.709Z,6.60
2017-11-07T14:03:45.816Z,6.50
2017-11-07T14:06:13.967Z,6.50
2017-11-07T14:08:42.098Z,6.50
2017-11-07T14:11:10.296Z,6.50
2017-11-07T14:13:38.415Z,6.40
2017-11-07T14:16:06.550Z,6.40
2017-11-07T14:18:34.646Z,6.40
2017-11-07T14:21:03.479Z,6.40
2017-11-07T14:23:33.352Z,6.30
2017-11-07T14:26:01.619Z,6.30
2017-11-07T14:28:31.751Z,6.30
2017-11-07T14:31:00.239Z,6.40
2017-11-07T14:33:28.422Z,6.40
2017-11-07T14:35:57.141Z,6.30
2017-11-07T14:38:25.666Z,6.30
2017-11-07T14:40:54.346Z,6.30
2017-11-07T14:43:23.568Z,6.30
2017-11-07T14:45:51.746Z,6.20
2017-11-07T14:48:19.877Z,6.20
2017-11-07T14:50:47.998Z,6.20
2017-11-07T14:53:16.291Z,6.20
2017-11-07T14:55:45.164Z,6.10
2017-11-07T14:58:13.307Z,6.00
2017-11-07T15:00:42.261Z,6.10
2017-11-07T15:03:12.015Z,6.10
2017-11-07T15:05:41.954Z,6.10
2017-11-07T15:08:10.087Z,6.10
2017-11-07T15:10:38.374Z,6.00
2017-11-07T15:13:06.486Z,5.90
2017-11-07T15:15:35.720Z,5.90
2017-11-07T15:18:04.023Z,5.80
2017-11-07T15:20:32.713Z,5.70
2017-11-07T15:23:01.546Z,5.60
2017-11-07T15:25:30.613Z,5.60
2017-11-07T15:27:59.000Z,5.60
2017-11-07T15:30:27.112Z,5.60
2017-11-07T15:32:55.290Z,5.60
2017-11-07T15:35:24.264Z,5.60
2017-11-07T15:37:52.406Z,5.50
2017-11-07T15:40:20.531Z,5.60
2017-11-07T15:43:04.746Z,5.50
2017-11-07T15:45:32.835Z,5.50
2017-11-07T15:48:00.970Z,5.50
2017-11-07T15:50:30.472Z,5.50
2017-11-07T15:53:02.580Z,5.50
2017-11-07T15:55:31.859Z,5.50
2017-11-07T15:58:01.614Z,5.50
2017-11-07T16:00:29.837Z,5.50
2017-11-07T16:02:58.506Z,5.30
2017-11-07T16:05:28.680Z,5.20
2017-11-07T16:07:57.630Z,5.20
2017-11-07T16:10:25.803Z,5.30
2017-11-07T16:12:54.782Z,5.30
2017-11-07T16:15:22.899Z,5.30
2017-11-07T16:17:52.200Z,5.30
2017-11-07T16:20:20.600Z,5.30
2017-11-07T16:22:49.362Z,5.40
2017-11-07T16:25:17.552Z,5.40
2017-11-07T16:27:45.968Z,5.40
2017-11-07T16:30:20.790Z,5.40
2017-11-07T16:32:48.941Z,5.40
2017-11-07T16:35:17.770Z,5.40
2017-11-07T16:37:46.580Z,5.40
2017-11-07T16:40:15.972Z,5.40
2017-11-07T16:42:44.602Z,5.30
2017-11-07T16:45:12.719Z,5.30
2017-11-07T16:47:40.843Z,5.30
2017-11-07T16:50:08.975Z,5.30
2017-11-07T16:52:37.149Z,5.40
2017-11-07T16:55:05.286Z,5.40
2017-11-07T16:57:33.549Z,5.30
2017-11-07T17:00:01.771Z,5.30
2017-11-07T17:02:29.911Z,5.20
2017-11-07T17:04:58.113Z,5.20
2017-11-07T17:07:26.324Z,5.20
2017-11-07T17:09:54.578Z,5.20
2017-11-07T17:12:22.685Z,5.20
2017-11-07T17:14:50.812Z,5.20
2017-11-07T17:17:19.732Z,5.20
2017-11-07T17:19:47.895Z,5.20
2017-11-07T17:22:16.026Z,5.20
2017-11-07T17:24:44.246Z,5.20
2017-11-07T17:27:13.319Z,5.10
2017-11-07T17:29:42.405Z,5.20
2017-11-07T17:32:11.338Z,5.20
2017-11-07T17:34:39.441Z,5.20
2017-11-07T17:37:07.624Z,5.20
2017-11-07T17:39:35.763Z,5.20
2017-11-07T17:42:03.905Z,5.20
2017-11-07T17:44:32.007Z,5.20
2017-11-07T17:47:00.153Z,5.20
2017-11-07T17:49:28.365Z,5.10
2017-11-07T17:51:56.508Z,5.10
2017-11-07T17:54:24.637Z,5.10
2017-11-07T17:56:53.626Z,5.20
2017-11-07T17:59:21.786Z,5.10
2017-11-07T18:01:50.299Z,5.10
2017-11-07T18:04:18.518Z,5.10
2017-11-07T18:06:46.634Z,5.10
2017-11-07T18:09:14.813Z,5.10
2017-11-07T18:11:42.943Z,5.10
2017-11-07T18:14:11.026Z,5.10
2017-11-07T18:16:39.343Z,5.10
2017-11-07T18:19:07.494Z,5.00
2017-11-07T18:21:35.881Z,4.90
2017-11-07T18:24:03.962Z,4.90
2017-11-07T18:26:32.118Z,4.80
2017-11-07T18:29:00.226Z,4.80
2017-11-07T18:31:28.479Z,4.80
2017-11-07T18:33:57.515Z,4.90
2017-11-07T18:36:25.644Z,4.80
2017-11-07T18:38:56.569Z,4.90
2017-11-07T18:41:24.694Z,4.90
2017-11-07T18:43:52.908Z,4.90
2017-11-07T18:46:21.027Z,4.90
2017-11-07T18:48:50.070Z,4.90
2017-11-07T18:51:18.152Z,4.80
2017-11-07T18:53:46.328Z,4.90
2017-11-07T18:56:14.534Z,4.90
2017-11-07T18:58:42.683Z,4.90
2017-11-07T19:01:11.690Z,4.80
2017-11-07T19:03:39.826Z,4.80
2017-11-07T19:06:08.795Z,4.80
2017-11-07T19:08:36.915Z,4.80
2017-11-07T19:11:06.007Z,4.70
2017-11-07T19:13:34.169Z,4.70
2017-11-07T19:16:03.034Z,4.70
2017-11-07T19:18:31.936Z,4.70
2017-11-07T19:21:00.050Z,4.70
2017-11-07T19:23:29.014Z,4.80
2017-11-07T19:25:57.144Z,4.70
2017-11-07T19:28:25.282Z,4.70
2017-11-07T19:30:54.598Z,4.70
2017-11-07T19:33:22.735Z,4.70
2017-11-07T19:35:50.836Z,4.70
2017-11-07T19:38:18.991Z,4.70
2017-11-07T19:40:47.122Z,4.70
2017-11-07T19:43:15.257Z,4.60
2017-11-07T19:45:43.357Z,4.60
2017-11-07T19:48:12.339Z,4.70
2017-11-07T19:50:40.472Z,4.70
2017-11-07T19:53:08.604Z,4.70
2017-11-07T19:55:36.730Z,4.70
2017-11-07T19:58:04.905Z,4.70
2017-11-07T20:00:33.025Z,4.70
2017-11-07T20:03:01.151Z,4.70
2017-11-07T20:05:29.257Z,4.80
2017-11-07T20:07:57.699Z,4.80
2017-11-07T20:10:26.418Z,4.80
2017-11-07T20:12:54.543Z,4.80
2017-11-07T20:15:23.467Z,4.80
2017-11-07T20:17:51.596Z,4.80
2017-11-07T20:20:20.260Z,4.80
2017-11-07T20:22:48.394Z,4.80
2017-11-07T20:25:16.535Z,4.80
2017-11-07T20:27:44.724Z,4.80
2017-11-07T20:30:12.906Z,4.80
2017-11-07T20:32:41.102Z,4.80
2017-11-07T20:35:12.914Z,4.80
2017-11-07T20:37:41.031Z,4.80
2017-11-07T20:40:09.257Z,4.80
2017-11-07T20:42:37.409Z,4.80
2017-11-07T20:45:05.502Z,4.80
2017-11-07T20:47:34.464Z,4.80
2017-11-07T20:50:02.613Z,4.80
2017-11-07T20:52:30.762Z,4.80
2017-11-07T20:54:58.871Z,4.80
2017-11-07T20:57:27.083Z,4.80
2017-11-07T20:59:55.292Z,4.80
2017-11-07T21:02:23.413Z,4.70
2017-11-07T21:04:52.345Z,4.70
2017-11-07T21:07:20.475Z,4.70
2017-11-07T21:09:49.329Z,4.80
2017-11-07T21:12:21.322Z,4.80
2017-11-07T21:14:49.586Z,4.80
2017-11-07T21:17:17.913Z,4.80
2017-11-07T21:19:46.075Z,4.80
2017-11-07T21:22:14.213Z,4.70
2017-11-07T21:24:43.206Z,4.60
2017-11-07T21:27:11.350Z,4.60
2017-11-07T21:29:40.251Z,4.50
2017-11-07T21:32:08.354Z,4.50
2017-11-07T21:34:39.302Z,4.40
2017-11-07T21:37:07.635Z,4.30
2017-11-07T21:39:35.758Z,4.30
2017-11-07T21:42:03.873Z,4.30
2017-11-07T21:44:32.779Z,4.30
2017-11-07T21:47:00.899Z,4.30
2017-11-07T21:49:29.006Z,4.40
2017-11-07T21:51:57.146Z,4.40
2017-11-07T21:54:25.283Z,4.50
2017-11-07T21:56:53.402Z,4.50
2017-11-07T21:59:21.829Z,4.50
2017-11-07T22:01:49.943Z,4.50
2017-11-07T22:04:18.059Z,4.60
2017-11-07T22:06:46.280Z,4.60
2017-11-07T22:09:14.471Z,4.70
2017-11-07T22:11:42.592Z,4.70
2017-11-07T22:14:10.758Z,4.70
2017-11-07T22:16:44.598Z,4.70
2017-11-07T22:19:12.874Z,4.70
2017-11-07T22:21:40.971Z,4.70
2017-11-07T22:24:09.094Z,4.70
2017-11-07T22:26:37.976Z,4.70
2017-11-07T22:29:07.693Z,4.80
2017-11-07T22:31:36.555Z,4.80
2017-11-07T22:34:04.650Z,4.80
2017-11-07T22:36:33.763Z,4.90
2017-11-07T22:39:01.900Z,4.90
2017-11-07T22:41:29.987Z,4.90
2017-11-07T22:43:58.201Z,4.90
2017-11-07T22:46:26.436Z,4.90
2017-11-07T22:48:54.557Z,5.00
2017-11-07T22:51:23.058Z,5.00
2017-11-07T22:53:51.166Z,5.00
2017-11-07T22:56:19.292Z,5.00
2017-11-07T22:58:47.410Z,5.00
2017-11-07T23:01:15.527Z,5.10
2017-11-07T23:03:43.646Z,5.10
2017-11-07T23:06:11.803Z,5.10
2017-11-07T23:08:39.931Z,5.10
2017-11-07T23:11:08.814Z,5.10
2017-11-07T23:13:36.917Z,5.10
2017-11-07T23:16:05.092Z,5.10
2017-11-07T23:18:33.243Z,5.10
2017-11-07T23:21:01.425Z,5.10
2017-11-07T23:23:29.587Z,5.10
2017-11-07T23:25:57.670Z,5.10
2017-11-07T23:28:25.800Z,5.10
2017-11-07T23:30:54.140Z,5.10
2017-11-07T23:33:22.241Z,5.10
2017-11-07T23:35:50.357Z,5.10
2017-11-07T23:38:18.506Z,5.10
2017-11-07T23:40:47.531Z,5.10
2017-11-07T23:43:15.642Z,5.10
2017-11-07T23:45:43.758Z,5.10
2017-11-07T23:48:11.942Z,5.20
2017-11-07T23:50:40.095Z,5.20
2017-11-07T23:53:08.198Z,5.20
2017-11-07T23:55:37.119Z,5.20
2017-11-07T23:58:05.355Z,5.20
